sensor_id;sensor_type;location;lat;lon;timestamp;temperature;humidity
5647;DHT22;2845;48.626;9.362;2023-05-10T00:01:17;14.40;99.90
5647;DHT22;2845;48.626;9.362;2023-05-10T00:03:52;14.30;99.90
5647;DHT22;2845;48.626;9.362;2023-05-10T00:06:26;15.50;99.90
5647;DHT22;2845;48.626;9.362;2023-05-10T00:09:00;14.30;99.90
5647;DHT22;2845;48.626;9.362;2023-05-10T00:11:34;14.30;99.90
5647;DHT22;2845;48.626;9.362;2023-05-10T00:14:09;14.20;99.90
5647;DHT22;2845;48.626;9.362;2023-05-10T00:16:44;14.20;99.90
5647;DHT22;2845;48.626;9.362;2023-05-10T00:19:19;14.20;99.90
5647;DHT22;2845;48.626;9.362;2023-05-10T00:21:53;14.20;99.90
5647;DHT22;2845;48.626;9.362;2023-05-10T00:24:28;14.20;99.90
5647;DHT22;2845;48.626;9.362;2023-05-10T00:27:02;14.20;99.90
5647;DHT22;2845;48.626;9.362;2023-05-10T00:29:36;14.50;99.90
5647;DHT22;2845;48.626;9.362;2023-05-10T00:32:12;14.30;99.90
5647;DHT22;2845;48.626;9.362;2023-05-10T00:34:47;14.20;99.90
5647;DHT22;2845;48.626;9.362;2023-05-10T00:37:21;14.20;99.90
5647;DHT22;2845;48.626;9.362;2023-05-10T00:39:56;14.20;99.90
5647;DHT22;2845;48.626;9.362;2023-05-10T00:42:30;14.20;99.90
5647;DHT22;2845;48.626;9.362;2023-05-10T00:45:05;17.80;99.90
5647;DHT22;2845;48.626;9.362;2023-05-10T00:47:42;14.20;99.90
5647;DHT22;2845;48.626;9.362;2023-05-10T00:50:16;14.30;99.90
5647;DHT22;2845;48.626;9.362;2023-05-10T00:52:50;14.20;99.90
5647;DHT22;2845;48.626;9.362;2023-05-10T00:55:25;14.20;99.90
5647;DHT22;2845;48.626;9.362;2023-05-10T00:58:00;14.20;99.90
5647;DHT22;2845;48.626;9.362;2023-05-10T01:00:35;14.20;99.90
5647;DHT22;2845;48.626;9.362;2023-05-10T01:03:11;14.20;99.90
5647;DHT22;2845;48.626;9.362;2023-05-10T01:05:47;14.20;99.90
5647;DHT22;2845;48.626;9.362;2023-05-10T01:08:21;14.20;99.90
5647;DHT22;2845;48.626;9.362;2023-05-10T01:10:57;14.90;99.90
5647;DHT22;2845;48.626;9.362;2023-05-10T01:13:33;14.10;99.90
5647;DHT22;2845;48.626;9.362;2023-05-10T01:16:09;14.00;99.90
5647;DHT22;2845;48.626;9.362;2023-05-10T01:18:45;14.00;99.90
5647;DHT22;2845;48.626;9.362;2023-05-10T01:21:27;14.10;99.90
5647;DHT22;2845;48.626;9.362;2023-05-10T01:28:22;14.00;99.90
5647;DHT22;2845;48.626;9.362;2023-05-10T01:31:28;14.00;99.90
5647;DHT22;2845;48.626;9.362;2023-05-10T01:34:09;13.90;99.90
5647;DHT22;2845;48.626;9.362;2023-05-10T01:36:52;13.90;99.90
5647;DHT22;2845;48.626;9.362;2023-05-10T01:39:32;13.90;99.90
5647;DHT22;2845;48.626;9.362;2023-05-10T01:42:11;13.90;99.90
5647;DHT22;2845;48.626;9.362;2023-05-10T01:44:54;13.90;99.90
5647;DHT22;2845;48.626;9.362;2023-05-10T01:47:37;13.90;99.90
5647;DHT22;2845;48.626;9.362;2023-05-10T01:50:15;17.30;99.90
5647;DHT22;2845;48.626;9.362;2023-05-10T01:52:54;14.00;99.90
5647;DHT22;2845;48.626;9.362;2023-05-10T01:55:32;14.00;99.90
5647;DHT22;2845;48.626;9.362;2023-05-10T01:58:10;15.20;99.90
5647;DHT22;2845;48.626;9.362;2023-05-10T02:00:49;14.00;99.90
5647;DHT22;2845;48.626;9.362;2023-05-10T02:03:26;14.00;99.90
5647;DHT22;2845;48.626;9.362;2023-05-10T02:06:02;13.90;99.90
5647;DHT22;2845;48.626;9.362;2023-05-10T02:08:38;15.30;99.90
5647;DHT22;2845;48.626;9.362;2023-05-10T02:11:14;17.60;99.90
5647;DHT22;2845;48.626;9.362;2023-05-10T02:13:49;13.90;99.90
5647;DHT22;2845;48.626;9.362;2023-05-10T02:16:26;13.90;99.90
5647;DHT22;2845;48.626;9.362;2023-05-10T02:19:03;13.90;99.90
5647;DHT22;2845;48.626;9.362;2023-05-10T02:21:40;13.90;99.90
5647;DHT22;2845;48.626;9.362;2023-05-10T02:24:15;13.80;99.90
5647;DHT22;2845;48.626;9.362;2023-05-10T02:26:51;13.90;99.90
5647;DHT22;2845;48.626;9.362;2023-05-10T02:29:28;13.80;99.90
5647;DHT22;2845;48.626;9.362;2023-05-10T02:32:03;13.80;99.90
5647;DHT22;2845;48.626;9.362;2023-05-10T02:34:38;13.80;99.90
5647;DHT22;2845;48.626;9.362;2023-05-10T02:37:15;13.80;99.90
5647;DHT22;2845;48.626;9.362;2023-05-10T02:39:53;13.80;99.90
5647;DHT22;2845;48.626;9.362;2023-05-10T02:42:28;13.80;99.90
5647;DHT22;2845;48.626;9.362;2023-05-10T02:45:07;13.80;99.90
5647;DHT22;2845;48.626;9.362;2023-05-10T02:47:43;13.80;99.90
5647;DHT22;2845;48.626;9.362;2023-05-10T02:50:18;13.70;99.90
5647;DHT22;2845;48.626;9.362;2023-05-10T02:52:59;13.60;99.90
5647;DHT22;2845;48.626;9.362;2023-05-10T02:55:37;13.60;99.90
5647;DHT22;2845;48.626;9.362;2023-05-10T02:58:12;13.60;99.90
5647;DHT22;2845;48.626;9.362;2023-05-10T03:00:47;13.60;99.90
5647;DHT22;2845;48.626;9.362;2023-05-10T03:03:21;13.60;99.90
5647;DHT22;2845;48.626;9.362;2023-05-10T03:05:55;13.50;99.90
5647;DHT22;2845;48.626;9.362;2023-05-10T03:08:31;13.60;99.90
5647;DHT22;2845;48.626;9.362;2023-05-10T03:11:28;16.20;99.90
5647;DHT22;2845;48.626;9.362;2023-05-10T03:14:16;13.50;99.90
5647;DHT22;2845;48.626;9.362;2023-05-10T03:16:58;13.60;99.90
5647;DHT22;2845;48.626;9.362;2023-05-10T03:19:48;13.50;99.90
5647;DHT22;2845;48.626;9.362;2023-05-10T03:22:30;13.50;99.90
5647;DHT22;2845;48.626;9.362;2023-05-10T03:25:08;14.00;99.90
5647;DHT22;2845;48.626;9.362;2023-05-10T03:27:45;13.50;99.90
5647;DHT22;2845;48.626;9.362;2023-05-10T03:30:20;13.40;99.90
5647;DHT22;2845;48.626;9.362;2023-05-10T03:32:54;13.70;99.90
5647;DHT22;2845;48.626;9.362;2023-05-10T03:35:29;13.40;99.90
5647;DHT22;2845;48.626;9.362;2023-05-10T03:38:03;13.30;99.90
5647;DHT22;2845;48.626;9.362;2023-05-10T03:40:39;13.30;99.90
5647;DHT22;2845;48.626;9.362;2023-05-10T03:43:13;13.30;99.90
5647;DHT22;2845;48.626;9.362;2023-05-10T03:45:47;13.30;99.90
5647;DHT22;2845;48.626;9.362;2023-05-10T03:48:21;13.80;99.90
5647;DHT22;2845;48.626;9.362;2023-05-10T03:50:56;13.30;99.90
5647;DHT22;2845;48.626;9.362;2023-05-10T03:53:30;13.30;99.90
5647;DHT22;2845;48.626;9.362;2023-05-10T03:56:05;13.30;99.90
5647;DHT22;2845;48.626;9.362;2023-05-10T03:58:40;13.20;99.90
5647;DHT22;2845;48.626;9.362;2023-05-10T04:01:14;15.40;99.90
5647;DHT22;2845;48.626;9.362;2023-05-10T04:03:48;13.40;99.90
5647;DHT22;2845;48.626;9.362;2023-05-10T04:06:22;13.40;99.90
5647;DHT22;2845;48.626;9.362;2023-05-10T04:08:56;13.40;99.90
5647;DHT22;2845;48.626;9.362;2023-05-10T04:11:33;13.40;99.90
5647;DHT22;2845;48.626;9.362;2023-05-10T04:14:07;13.40;99.90
5647;DHT22;2845;48.626;9.362;2023-05-10T04:16:41;13.30;99.90
5647;DHT22;2845;48.626;9.362;2023-05-10T04:19:16;13.30;99.90
5647;DHT22;2845;48.626;9.362;2023-05-10T04:21:50;13.30;99.90
5647;DHT22;2845;48.626;9.362;2023-05-10T04:24:24;13.60;99.90
5647;DHT22;2845;48.626;9.362;2023-05-10T04:26:59;13.30;99.90
5647;DHT22;2845;48.626;9.362;2023-05-10T04:29:34;13.40;99.90
5647;DHT22;2845;48.626;9.362;2023-05-10T04:32:08;13.40;99.90
5647;DHT22;2845;48.626;9.362;2023-05-10T04:34:43;13.30;99.90
5647;DHT22;2845;48.626;9.362;2023-05-10T04:37:18;13.30;99.90
5647;DHT22;2845;48.626;9.362;2023-05-10T04:39:52;13.30;99.90
5647;DHT22;2845;48.626;9.362;2023-05-10T04:42:28;13.40;99.90
5647;DHT22;2845;48.626;9.362;2023-05-10T04:45:02;16.40;99.90
5647;DHT22;2845;48.626;9.362;2023-05-10T04:47:37;13.50;99.90
5647;DHT22;2845;48.626;9.362;2023-05-10T04:50:11;13.50;99.90
5647;DHT22;2845;48.626;9.362;2023-05-10T04:52:45;13.50;99.90
5647;DHT22;2845;48.626;9.362;2023-05-10T04:55:19;13.60;99.90
5647;DHT22;2845;48.626;9.362;2023-05-10T04:57:55;13.50;99.90
5647;DHT22;2845;48.626;9.362;2023-05-10T05:00:29;13.50;99.90
5647;DHT22;2845;48.626;9.362;2023-05-10T05:03:04;13.50;99.90
5647;DHT22;2845;48.626;9.362;2023-05-10T05:05:38;13.50;99.90
5647;DHT22;2845;48.626;9.362;2023-05-10T05:08:12;13.50;99.90
5647;DHT22;2845;48.626;9.362;2023-05-10T05:10:48;13.70;99.90
5647;DHT22;2845;48.626;9.362;2023-05-10T05:13:24;13.70;99.90
5647;DHT22;2845;48.626;9.362;2023-05-10T05:16:00;14.60;99.90
5647;DHT22;2845;48.626;9.362;2023-05-10T05:18:35;13.70;99.90
5647;DHT22;2845;48.626;9.362;2023-05-10T05:21:16;13.70;99.90
5647;DHT22;2845;48.626;9.362;2023-05-10T05:23:51;13.70;99.90
5647;DHT22;2845;48.626;9.362;2023-05-10T05:26:26;13.70;99.90
5647;DHT22;2845;48.626;9.362;2023-05-10T05:29:01;13.70;99.90
5647;DHT22;2845;48.626;9.362;2023-05-10T05:31:36;13.80;99.90
5647;DHT22;2845;48.626;9.362;2023-05-10T05:34:10;13.80;99.90
5647;DHT22;2845;48.626;9.362;2023-05-10T05:36:44;16.40;99.90
5647;DHT22;2845;48.626;9.362;2023-05-10T05:39:18;14.10;99.90
5647;DHT22;2845;48.626;9.362;2023-05-10T05:41:52;14.20;99.90
5647;DHT22;2845;48.626;9.362;2023-05-10T05:44:28;14.30;99.90
5647;DHT22;2845;48.626;9.362;2023-05-10T05:47:02;14.40;99.90
5647;DHT22;2845;48.626;9.362;2023-05-10T05:49:36;14.40;99.90
5647;DHT22;2845;48.626;9.362;2023-05-10T05:52:10;14.40;99.90
5647;DHT22;2845;48.626;9.362;2023-05-10T05:54:45;14.50;99.90
5647;DHT22;2845;48.626;9.362;2023-05-10T05:57:19;14.50;99.90
5647;DHT22;2845;48.626;9.362;2023-05-10T05:59:55;14.60;99.90
5647;DHT22;2845;48.626;9.362;2023-05-10T06:02:29;14.50;99.90
5647;DHT22;2845;48.626;9.362;2023-05-10T06:05:04;14.60;99.90
5647;DHT22;2845;48.626;9.362;2023-05-10T06:07:39;14.60;99.90
5647;DHT22;2845;48.626;9.362;2023-05-10T06:10:14;14.60;99.90
5647;DHT22;2845;48.626;9.362;2023-05-10T06:12:49;14.60;99.90
5647;DHT22;2845;48.626;9.362;2023-05-10T06:15:24;14.60;99.90
5647;DHT22;2845;48.626;9.362;2023-05-10T06:17:58;14.70;99.90
5647;DHT22;2845;48.626;9.362;2023-05-10T06:20:32;15.20;99.90
5647;DHT22;2845;48.626;9.362;2023-05-10T06:23:07;14.80;99.90
5647;DHT22;2845;48.626;9.362;2023-05-10T06:25:41;14.80;99.90
5647;DHT22;2845;48.626;9.362;2023-05-10T06:28:15;14.80;99.90
5647;DHT22;2845;48.626;9.362;2023-05-10T06:33:25;14.90;99.90
5647;DHT22;2845;48.626;9.362;2023-05-10T06:36:00;14.90;99.90
5647;DHT22;2845;48.626;9.362;2023-05-10T06:38:34;14.90;99.90
5647;DHT22;2845;48.626;9.362;2023-05-10T06:41:08;17.10;99.90
5647;DHT22;2845;48.626;9.362;2023-05-10T06:43:42;15.00;99.90
5647;DHT22;2845;48.626;9.362;2023-05-10T06:46:18;15.00;99.90
5647;DHT22;2845;48.626;9.362;2023-05-10T06:48:52;15.10;99.90
5647;DHT22;2845;48.626;9.362;2023-05-10T06:51:26;15.10;99.90
5647;DHT22;2845;48.626;9.362;2023-05-10T06:54:01;16.50;99.90
5647;DHT22;2845;48.626;9.362;2023-05-10T06:56:35;15.10;99.90
5647;DHT22;2845;48.626;9.362;2023-05-10T06:59:10;15.00;99.90
5647;DHT22;2845;48.626;9.362;2023-05-10T07:01:46;14.90;99.90
5647;DHT22;2845;48.626;9.362;2023-05-10T07:04:20;15.00;99.90
5647;DHT22;2845;48.626;9.362;2023-05-10T07:06:54;15.10;99.90
5647;DHT22;2845;48.626;9.362;2023-05-10T07:09:29;15.30;99.90
5647;DHT22;2845;48.626;9.362;2023-05-10T07:12:04;15.30;99.90
5647;DHT22;2845;48.626;9.362;2023-05-10T07:14:41;15.30;99.90
5647;DHT22;2845;48.626;9.362;2023-05-10T07:17:16;15.20;99.90
5647;DHT22;2845;48.626;9.362;2023-05-10T07:19:53;15.30;99.90
5647;DHT22;2845;48.626;9.362;2023-05-10T07:22:27;18.80;99.90
5647;DHT22;2845;48.626;9.362;2023-05-10T07:25:01;15.40;99.90
5647;DHT22;2845;48.626;9.362;2023-05-10T07:27:35;15.60;99.90
5647;DHT22;2845;48.626;9.362;2023-05-10T07:30:11;15.60;99.90
5647;DHT22;2845;48.626;9.362;2023-05-10T07:32:47;15.80;99.90
5647;DHT22;2845;48.626;9.362;2023-05-10T07:35:21;15.90;99.90
5647;DHT22;2845;48.626;9.362;2023-05-10T07:37:55;16.00;99.90
5647;DHT22;2845;48.626;9.362;2023-05-10T07:40:30;16.10;99.90
5647;DHT22;2845;48.626;9.362;2023-05-10T07:43:04;16.10;99.90
5647;DHT22;2845;48.626;9.362;2023-05-10T07:45:38;16.10;99.90
5647;DHT22;2845;48.626;9.362;2023-05-10T07:48:14;16.20;99.90
5647;DHT22;2845;48.626;9.362;2023-05-10T07:50:48;17.90;99.90
5647;DHT22;2845;48.626;9.362;2023-05-10T07:53:22;16.40;99.90
5647;DHT22;2845;48.626;9.362;2023-05-10T07:55:57;16.40;99.90
5647;DHT22;2845;48.626;9.362;2023-05-10T07:58:32;19.90;99.90
5647;DHT22;2845;48.626;9.362;2023-05-10T08:01:06;16.20;99.90
5647;DHT22;2845;48.626;9.362;2023-05-10T08:03:42;18.60;99.90
5647;DHT22;2845;48.626;9.362;2023-05-10T08:06:17;16.10;99.90
5647;DHT22;2845;48.626;9.362;2023-05-10T08:08:52;16.30;99.90
5647;DHT22;2845;48.626;9.362;2023-05-10T08:11:26;16.30;99.90
5647;DHT22;2845;48.626;9.362;2023-05-10T08:14:01;16.30;99.90
5647;DHT22;2845;48.626;9.362;2023-05-10T08:16:35;16.30;99.90
5647;DHT22;2845;48.626;9.362;2023-05-10T08:19:10;15.10;99.90
5647;DHT22;2845;48.626;9.362;2023-05-10T08:25:15;16.30;99.90
5647;DHT22;2845;48.626;9.362;2023-05-10T08:27:49;16.30;99.90
5647;DHT22;2845;48.626;9.362;2023-05-10T08:30:24;16.30;99.90
5647;DHT22;2845;48.626;9.362;2023-05-10T08:32:58;16.30;99.90
5647;DHT22;2845;48.626;9.362;2023-05-10T08:35:33;16.40;99.90
5647;DHT22;2845;48.626;9.362;2023-05-10T08:38:08;17.60;99.90
5647;DHT22;2845;48.626;9.362;2023-05-10T08:40:43;16.60;99.90
5647;DHT22;2845;48.626;9.362;2023-05-10T08:43:18;16.80;99.90
5647;DHT22;2845;48.626;9.362;2023-05-10T08:45:54;16.90;99.90
5647;DHT22;2845;48.626;9.362;2023-05-10T08:48:29;17.00;99.90
5647;DHT22;2845;48.626;9.362;2023-05-10T08:51:06;17.10;99.30
5647;DHT22;2845;48.626;9.362;2023-05-10T08:53:42;17.20;99.20
5647;DHT22;2845;48.626;9.362;2023-05-10T08:56:16;19.40;99.40
5647;DHT22;2845;48.626;9.362;2023-05-10T08:58:50;17.90;98.50
5647;DHT22;2845;48.626;9.362;2023-05-10T09:01:25;17.50;97.80
5647;DHT22;2845;48.626;9.362;2023-05-10T09:04:00;17.70;98.30
5647;DHT22;2845;48.626;9.362;2023-05-10T09:06:37;17.70;97.90
5647;DHT22;2845;48.626;9.362;2023-05-10T09:09:12;18.60;97.90
5647;DHT22;2845;48.626;9.362;2023-05-10T09:11:46;17.70;97.90
5647;DHT22;2845;48.626;9.362;2023-05-10T09:14:23;19.20;97.80
5647;DHT22;2845;48.626;9.362;2023-05-10T09:16:58;18.00;97.40
5647;DHT22;2845;48.626;9.362;2023-05-10T09:19:32;18.00;97.10
5647;DHT22;2845;48.626;9.362;2023-05-10T09:22:08;18.20;97.00
5647;DHT22;2845;48.626;9.362;2023-05-10T09:24:43;18.30;96.70
5647;DHT22;2845;48.626;9.362;2023-05-10T09:27:26;18.50;96.70
5647;DHT22;2845;48.626;9.362;2023-05-10T09:30:00;19.60;96.60
5647;DHT22;2845;48.626;9.362;2023-05-10T09:32:39;18.70;96.40
5647;DHT22;2845;48.626;9.362;2023-05-10T09:35:15;18.80;96.00
5647;DHT22;2845;48.626;9.362;2023-05-10T09:37:53;18.90;95.90
5647;DHT22;2845;48.626;9.362;2023-05-10T09:40:32;18.80;95.80
5647;DHT22;2845;48.626;9.362;2023-05-10T09:43:07;18.80;95.90
5647;DHT22;2845;48.626;9.362;2023-05-10T09:45:41;18.90;95.80
5647;DHT22;2845;48.626;9.362;2023-05-10T09:48:15;19.40;96.00
5647;DHT22;2845;48.626;9.362;2023-05-10T09:50:56;18.60;96.00
5647;DHT22;2845;48.626;9.362;2023-05-10T09:53:32;18.80;96.00
5647;DHT22;2845;48.626;9.362;2023-05-10T09:56:06;19.20;95.60
5647;DHT22;2845;48.626;9.362;2023-05-10T09:58:40;20.90;95.70
5647;DHT22;2845;48.626;9.362;2023-05-10T10:01:15;19.00;95.00
5647;DHT22;2845;48.626;9.362;2023-05-10T10:03:49;21.70;95.40
5647;DHT22;2845;48.626;9.362;2023-05-10T10:06:24;22.00;95.70
5647;DHT22;2845;48.626;9.362;2023-05-10T10:09:04;19.20;95.20
5647;DHT22;2845;48.626;9.362;2023-05-10T10:11:38;19.00;94.80
5647;DHT22;2845;48.626;9.362;2023-05-10T10:14:14;19.00;94.70
5647;DHT22;2845;48.626;9.362;2023-05-10T10:16:49;19.10;94.70
5647;DHT22;2845;48.626;9.362;2023-05-10T10:19:38;19.20;94.50
5647;DHT22;2845;48.626;9.362;2023-05-10T10:22:12;19.10;94.60
5647;DHT22;2845;48.626;9.362;2023-05-10T10:24:48;18.90;94.60
5647;DHT22;2845;48.626;9.362;2023-05-10T10:27:28;18.90;94.40
5647;DHT22;2845;48.626;9.362;2023-05-10T10:30:16;19.00;94.50
5647;DHT22;2845;48.626;9.362;2023-05-10T10:33:06;18.90;94.30
5647;DHT22;2845;48.626;9.362;2023-05-10T10:36:02;18.90;94.70
5647;DHT22;2845;48.626;9.362;2023-05-10T10:38:38;18.90;94.70
5647;DHT22;2845;48.626;9.362;2023-05-10T10:41:35;18.90;94.70
5647;DHT22;2845;48.626;9.362;2023-05-10T10:44:33;19.00;94.40
5647;DHT22;2845;48.626;9.362;2023-05-10T10:47:24;19.20;94.60
5647;DHT22;2845;48.626;9.362;2023-05-10T10:50:06;19.20;93.80
5647;DHT22;2845;48.626;9.362;2023-05-10T10:52:42;19.40;94.10
5647;DHT22;2845;48.626;9.362;2023-05-10T10:55:18;19.60;93.60
5647;DHT22;2845;48.626;9.362;2023-05-10T10:57:56;19.60;93.40
5647;DHT22;2845;48.626;9.362;2023-05-10T11:00:36;19.50;93.20
5647;DHT22;2845;48.626;9.362;2023-05-10T11:03:13;19.50;93.40
5647;DHT22;2845;48.626;9.362;2023-05-10T11:05:58;19.80;93.40
5647;DHT22;2845;48.626;9.362;2023-05-10T11:08:41;19.50;93.40
5647;DHT22;2845;48.626;9.362;2023-05-10T11:11:17;19.40;93.40
5647;DHT22;2845;48.626;9.362;2023-05-10T11:13:53;19.20;93.40
5647;DHT22;2845;48.626;9.362;2023-05-10T11:16:27;19.00;93.60
5647;DHT22;2845;48.626;9.362;2023-05-10T11:19:03;18.70;94.20
5647;DHT22;2845;48.626;9.362;2023-05-10T11:21:45;18.30;94.80
5647;DHT22;2845;48.626;9.362;2023-05-10T11:24:21;18.10;95.60
5647;DHT22;2845;48.626;9.362;2023-05-10T11:26:56;17.90;95.70
5647;DHT22;2845;48.626;9.362;2023-05-10T11:29:32;17.70;96.20
5647;DHT22;2845;48.626;9.362;2023-05-10T11:32:06;17.70;96.80
5647;DHT22;2845;48.626;9.362;2023-05-10T11:34:41;17.30;97.20
5647;DHT22;2845;48.626;9.362;2023-05-10T11:37:15;16.80;97.70
5647;DHT22;2845;48.626;9.362;2023-05-10T11:39:49;16.40;98.00
5647;DHT22;2845;48.626;9.362;2023-05-10T11:42:23;15.90;98.70
5647;DHT22;2845;48.626;9.362;2023-05-10T11:45:00;15.40;99.70
5647;DHT22;2845;48.626;9.362;2023-05-10T11:47:34;15.00;99.90
5647;DHT22;2845;48.626;9.362;2023-05-10T11:50:10;14.80;99.90
5647;DHT22;2845;48.626;9.362;2023-05-10T11:52:45;14.60;99.90
5647;DHT22;2845;48.626;9.362;2023-05-10T11:55:19;15.70;99.90
5647;DHT22;2845;48.626;9.362;2023-05-10T11:57:54;14.40;99.90
5647;DHT22;2845;48.626;9.362;2023-05-10T12:00:29;14.40;99.90
5647;DHT22;2845;48.626;9.362;2023-05-10T12:03:04;14.50;99.90
5647;DHT22;2845;48.626;9.362;2023-05-10T12:05:38;14.40;99.90
5647;DHT22;2845;48.626;9.362;2023-05-10T12:08:15;14.40;99.90
5647;DHT22;2845;48.626;9.362;2023-05-10T12:11:04;14.40;99.90
5647;DHT22;2845;48.626;9.362;2023-05-10T12:13:40;14.40;99.90
5647;DHT22;2845;48.626;9.362;2023-05-10T12:16:18;14.30;99.90
5647;DHT22;2845;48.626;9.362;2023-05-10T12:18:58;14.40;99.90
5647;DHT22;2845;48.626;9.362;2023-05-10T12:21:33;14.40;99.90
5647;DHT22;2845;48.626;9.362;2023-05-10T12:24:07;14.60;99.90
5647;DHT22;2845;48.626;9.362;2023-05-10T12:26:42;14.70;99.90
5647;DHT22;2845;48.626;9.362;2023-05-10T12:29:17;15.00;99.90
5647;DHT22;2845;48.626;9.362;2023-05-10T12:31:55;15.20;99.90
5647;DHT22;2845;48.626;9.362;2023-05-10T12:34:31;15.60;99.90
5647;DHT22;2845;48.626;9.362;2023-05-10T12:37:07;15.90;99.90
5647;DHT22;2845;48.626;9.362;2023-05-10T12:39:43;15.80;99.90
5647;DHT22;2845;48.626;9.362;2023-05-10T12:42:18;15.60;99.90
5647;DHT22;2845;48.626;9.362;2023-05-10T12:44:55;15.60;99.90
5647;DHT22;2845;48.626;9.362;2023-05-10T12:47:31;15.40;99.90
5647;DHT22;2845;48.626;9.362;2023-05-10T12:50:07;15.40;99.90
5647;DHT22;2845;48.626;9.362;2023-05-10T12:52:41;15.30;99.90
5647;DHT22;2845;48.626;9.362;2023-05-10T12:55:15;15.20;99.90
5647;DHT22;2845;48.626;9.362;2023-05-10T12:57:49;15.20;99.90
5647;DHT22;2845;48.626;9.362;2023-05-10T13:00:24;15.30;99.90
5647;DHT22;2845;48.626;9.362;2023-05-10T13:03:00;15.50;99.90
5647;DHT22;2845;48.626;9.362;2023-05-10T13:05:34;15.80;99.90
5647;DHT22;2845;48.626;9.362;2023-05-10T13:08:08;16.00;99.90
5647;DHT22;2845;48.626;9.362;2023-05-10T13:10:42;16.20;99.90
5647;DHT22;2845;48.626;9.362;2023-05-10T13:13:16;16.50;99.90
5647;DHT22;2845;48.626;9.362;2023-05-10T13:15:50;16.80;99.80
5647;DHT22;2845;48.626;9.362;2023-05-10T13:18:26;17.10;99.40
5647;DHT22;2845;48.626;9.362;2023-05-10T13:21:00;17.60;98.80
5647;DHT22;2845;48.626;9.362;2023-05-10T13:23:36;18.00;98.50
5647;DHT22;2845;48.626;9.362;2023-05-10T13:26:10;18.10;97.80
5647;DHT22;2845;48.626;9.362;2023-05-10T13:28:44;18.30;97.10
5647;DHT22;2845;48.626;9.362;2023-05-10T13:31:18;19.60;97.30
5647;DHT22;2845;48.626;9.362;2023-05-10T13:33:55;18.60;97.20
5647;DHT22;2845;48.626;9.362;2023-05-10T13:36:29;18.60;96.30
5647;DHT22;2845;48.626;9.362;2023-05-10T13:39:04;18.50;96.70
5647;DHT22;2845;48.626;9.362;2023-05-10T13:41:38;18.50;96.90
5647;DHT22;2845;48.626;9.362;2023-05-10T13:44:13;18.60;95.90
5647;DHT22;2845;48.626;9.362;2023-05-10T13:46:47;18.40;96.40
5647;DHT22;2845;48.626;9.362;2023-05-10T13:49:23;18.50;96.90
5647;DHT22;2845;48.626;9.362;2023-05-10T13:51:57;18.50;96.80
5647;DHT22;2845;48.626;9.362;2023-05-10T13:54:32;18.50;96.50
5647;DHT22;2845;48.626;9.362;2023-05-10T13:57:06;18.60;96.20
5647;DHT22;2845;48.626;9.362;2023-05-10T13:59:40;18.60;95.30
5647;DHT22;2845;48.626;9.362;2023-05-10T14:02:14;18.80;95.40
5647;DHT22;2845;48.626;9.362;2023-05-10T14:04:50;18.80;95.40
5647;DHT22;2845;48.626;9.362;2023-05-10T14:07:24;18.70;94.10
5647;DHT22;2845;48.626;9.362;2023-05-10T14:09:58;18.60;94.80
5647;DHT22;2845;48.626;9.362;2023-05-10T14:12:32;18.50;94.80
5647;DHT22;2845;48.626;9.362;2023-05-10T14:15:07;18.40;94.80
5647;DHT22;2845;48.626;9.362;2023-05-10T14:17:44;18.50;95.20
5647;DHT22;2845;48.626;9.362;2023-05-10T14:20:19;18.50;94.90
5647;DHT22;2845;48.626;9.362;2023-05-10T14:22:53;18.60;95.10
5647;DHT22;2845;48.626;9.362;2023-05-10T14:25:28;18.50;94.80
5647;DHT22;2845;48.626;9.362;2023-05-10T14:28:02;18.60;94.90
5647;DHT22;2845;48.626;9.362;2023-05-10T14:30:36;18.70;94.60
5647;DHT22;2845;48.626;9.362;2023-05-10T14:33:10;18.70;94.00
5647;DHT22;2845;48.626;9.362;2023-05-10T14:35:47;18.70;93.60
5647;DHT22;2845;48.626;9.362;2023-05-10T14:38:22;18.50;93.60
5647;DHT22;2845;48.626;9.362;2023-05-10T14:40:56;18.50;93.80
5647;DHT22;2845;48.626;9.362;2023-05-10T14:43:30;18.40;94.00
5647;DHT22;2845;48.626;9.362;2023-05-10T14:46:04;18.40;94.00
5647;DHT22;2845;48.626;9.362;2023-05-10T14:48:39;18.30;94.50
5647;DHT22;2845;48.626;9.362;2023-05-10T14:51:14;18.30;94.60
5647;DHT22;2845;48.626;9.362;2023-05-10T14:53:48;19.80;95.00
5647;DHT22;2845;48.626;9.362;2023-05-10T14:56:22;18.20;94.50
5647;DHT22;2845;48.626;9.362;2023-05-10T14:58:58;18.10;94.60
5647;DHT22;2845;48.626;9.362;2023-05-10T15:01:33;18.10;94.60
5647;DHT22;2845;48.626;9.362;2023-05-10T15:04:10;18.00;93.90
5647;DHT22;2845;48.626;9.362;2023-05-10T15:06:47;18.00;94.10
5647;DHT22;2845;48.626;9.362;2023-05-10T15:09:21;17.90;94.30
5647;DHT22;2845;48.626;9.362;2023-05-10T15:11:55;17.80;94.10
5647;DHT22;2845;48.626;9.362;2023-05-10T15:14:30;17.70;94.30
5647;DHT22;2845;48.626;9.362;2023-05-10T15:17:06;17.70;94.50
5647;DHT22;2845;48.626;9.362;2023-05-10T15:19:41;17.70;94.60
5647;DHT22;2845;48.626;9.362;2023-05-10T15:22:16;17.70;94.60
5647;DHT22;2845;48.626;9.362;2023-05-10T15:24:51;17.70;94.30
5647;DHT22;2845;48.626;9.362;2023-05-10T15:27:25;17.60;94.40
5647;DHT22;2845;48.626;9.362;2023-05-10T15:30:00;17.50;94.60
5647;DHT22;2845;48.626;9.362;2023-05-10T15:32:34;17.60;94.70
5647;DHT22;2845;48.626;9.362;2023-05-10T15:35:09;17.60;94.90
5647;DHT22;2845;48.626;9.362;2023-05-10T15:37:46;17.60;95.10
5647;DHT22;2845;48.626;9.362;2023-05-10T15:40:21;17.70;95.20
5647;DHT22;2845;48.626;9.362;2023-05-10T15:42:55;17.70;94.10
5647;DHT22;2845;48.626;9.362;2023-05-10T15:45:30;17.60;94.80
5647;DHT22;2845;48.626;9.362;2023-05-10T15:48:05;17.70;94.50
5647;DHT22;2845;48.626;9.362;2023-05-10T15:50:39;17.50;94.50
5647;DHT22;2845;48.626;9.362;2023-05-10T15:53:15;18.10;94.70
5647;DHT22;2845;48.626;9.362;2023-05-10T15:55:49;17.40;94.90
5647;DHT22;2845;48.626;9.362;2023-05-10T15:58:23;17.30;94.70
5647;DHT22;2845;48.626;9.362;2023-05-10T16:00:57;16.60;94.50
5647;DHT22;2845;48.626;9.362;2023-05-10T16:03:32;17.20;94.90
5647;DHT22;2845;48.626;9.362;2023-05-10T16:06:09;17.20;95.30
5647;DHT22;2845;48.626;9.362;2023-05-10T16:08:44;17.20;95.30
5647;DHT22;2845;48.626;9.362;2023-05-10T16:11:19;17.10;94.90
5647;DHT22;2845;48.626;9.362;2023-05-10T16:13:53;17.00;94.70
5647;DHT22;2845;48.626;9.362;2023-05-10T16:16:27;17.00;95.10
5647;DHT22;2845;48.626;9.362;2023-05-10T16:19:02;16.90;95.00
5647;DHT22;2845;48.626;9.362;2023-05-10T16:21:36;16.80;95.20
5647;DHT22;2845;48.626;9.362;2023-05-10T16:24:12;16.90;94.90
5647;DHT22;2845;48.626;9.362;2023-05-10T16:26:46;16.90;95.30
5647;DHT22;2845;48.626;9.362;2023-05-10T16:29:20;16.90;95.30
5647;DHT22;2845;48.626;9.362;2023-05-10T16:31:55;17.30;95.30
5647;DHT22;2845;48.626;9.362;2023-05-10T16:34:29;16.90;95.10
5647;DHT22;2845;48.626;9.362;2023-05-10T16:37:03;14.80;94.70
5647;DHT22;2845;48.626;9.362;2023-05-10T16:39:39;16.90;94.80
5647;DHT22;2845;48.626;9.362;2023-05-10T16:42:13;16.80;95.30
5647;DHT22;2845;48.626;9.362;2023-05-10T16:44:47;16.80;95.60
5647;DHT22;2845;48.626;9.362;2023-05-10T16:47:21;16.70;95.70
5647;DHT22;2845;48.626;9.362;2023-05-10T16:49:59;16.70;95.40
5647;DHT22;2845;48.626;9.362;2023-05-10T16:52:34;16.70;95.60
5647;DHT22;2845;48.626;9.362;2023-05-10T16:55:10;16.60;95.70
5647;DHT22;2845;48.626;9.362;2023-05-10T16:57:45;16.60;95.80
5647;DHT22;2845;48.626;9.362;2023-05-10T17:00:19;16.70;95.90
5647;DHT22;2845;48.626;9.362;2023-05-10T17:02:53;16.70;96.10
5647;DHT22;2845;48.626;9.362;2023-05-10T17:05:28;16.70;95.90
5647;DHT22;2845;48.626;9.362;2023-05-10T17:08:03;16.70;96.10